Livingstonville, New York
Current Conditions -  °F | °C
As of 10:51 PM on Friday 19 Dec 2014 (Local Time) from KALB Reporting Station
Overcast Overcast  
Wind Chill: 17°   Ceiling: 2300
Heat Index: 27°   Visibility: 10mi
Dew Point: 18°   Wind: 10mph
Humidity: 69%   Direction: 330°NNW
Pressure: 30.21"   Gusts: NA
Location:  42.5337°N, 74.3385°W
Report Text: KALB 200351Z 33009KT 10SM BKN023 OVC027 M03/M08 A3021 RMK AO2 SLP232 T10281078
Loading
Personal Weather Stations






























Interactive Weather Map New forecast layout! Learn more

10-Day Weather Forecast

Advertisements
Track Severe Weather on mobile